Time;durP1;ratioP1;P1;durP2;ratioP2;P2;SDS_P1;SDS_P2;PMS_P1;PMS_P2;Temp;Humidity;BMP_temperature;BMP_pressure;BME280_temperature;BME280_humidity;BME280_pressure;Samples;Min_cycle;Max_cycle;Signal;HPM_P1;HPM_P2
2022/05/25 00:01:32;;;;;;;8.97;4.50;;;12.70;96.00;;;;;;5070932;28;20200;-58
2022/05/25 00:03:59;;;;;;;7.37;4.60;;;12.80;95.80;;;;;;5071095;28;20253;-57
2022/05/25 00:06:26;;;;;;;8.20;4.80;;;12.70;96.30;;;;;;5071096;28;20721;-58
2022/05/25 00:08:54;;;;;;;8.30;4.93;;;12.70;96.70;;;;;;5071339;28;20796;-58
2022/05/25 00:11:21;;;;;;;9.53;5.23;;;12.70;96.80;;;;;;5070895;28;20207;-57
2022/05/25 00:13:49;;;;;;;10.57;4.83;;;12.60;96.80;;;;;;5071223;28;20247;-57
2022/05/25 00:16:16;;;;;;;8.40;5.47;;;12.60;97.00;;;;;;5071335;28;20200;-58
2022/05/25 00:19:58;;;;;;;7.07;4.93;;;12.60;97.20;;;;;;5071103;28;20219;-57
2022/05/25 00:21:34;;;;;;;7.30;4.70;;;12.60;97.70;;;;;;5070626;28;20240;-55
2022/05/25 00:24:00;;;;;;;8.70;4.50;;;12.50;97.30;;;;;;5071449;28;20281;-58
2022/05/25 00:26:27;;;;;;;8.10;4.47;;;12.50;96.90;;;;;;5071231;28;20605;-57
2022/05/25 00:28:55;;;;;;;7.00;4.53;;;12.50;96.70;;;;;;5071230;28;20618;-57
2022/05/25 00:31:22;;;;;;;8.70;4.83;;;12.50;96.60;;;;;;5070814;28;20229;-57
2022/05/25 00:33:49;;;;;;;7.73;4.00;;;12.50;96.80;;;;;;5070748;28;20228;-57
2022/05/25 00:36:16;;;;;;;6.27;4.30;;;12.50;96.70;;;;;;5070926;28;20207;-57
2022/05/25 00:38:43;;;;;;;5.70;4.10;;;12.50;96.40;;;;;;5071155;28;20203;-56
2022/05/25 00:41:09;;;;;;;9.27;5.23;;;12.50;96.40;;;;;;5072708;28;20558;-58
2022/05/25 00:43:37;;;;;;;7.23;4.90;;;12.40;98.10;;;;;;5074698;28;20655;-58
2022/05/25 00:46:09;;;;;;;8.40;4.67;;;12.40;98.10;;;;;;5074730;28;20295;-56
2022/05/25 00:48:39;;;;;;;10.37;4.80;;;12.40;98.00;;;;;;5074550;28;20196;-57
2022/05/25 00:51:15;;;;;;;11.03;6.40;;;12.40;97.70;;;;;;5074578;28;20223;-57
2022/05/25 00:53:46;;;;;;;9.90;5.20;;;12.30;97.50;;;;;;5074728;28;20208;-60
2022/05/25 00:56:17;;;;;;;8.90;4.90;;;12.30;97.30;;;;;;5074394;28;20222;-57
2022/05/25 00:58:50;;;;;;;6.53;4.50;;;12.40;97.30;;;;;;5074245;28;20736;-58
2022/05/25 01:01:18;;;;;;;6.27;4.47;;;12.40;97.20;;;;;;5074575;28;20193;-58
2022/05/25 01:03:45;;;;;;;5.90;4.33;;;12.40;97.00;;;;;;5074139;28;20205;-58
2022/05/25 01:06:20;;;;;;;8.67;4.70;;;12.40;97.30;;;;;;5074155;28;20225;-59
2022/05/25 01:08:54;;;;;;;8.53;4.47;;;12.40;97.20;;;;;;5074368;28;20192;-58
2022/05/25 01:11:40;;;;;;;8.13;4.30;;;12.40;97.10;;;;;;5074173;28;20203;-58
2022/05/25 01:14:17;;;;;;;10.10;4.30;;;12.40;97.00;;;;;;5074053;28;20285;-58
2022/05/25 01:16:50;;;;;;;6.93;4.23;;;12.40;96.90;;;;;;5074790;28;20545;-57
2022/05/25 01:19:37;;;;;;;5.70;4.10;;;12.40;96.80;;;;;;5073975;28;20189;-57
2022/05/25 01:22:14;;;;;;;7.30;3.80;;;12.40;96.70;;;;;;5074096;28;20204;-57
2022/05/25 01:24:52;;;;;;;5.63;3.47;;;12.50;96.60;;;;;;5074327;28;20192;-57
2022/05/25 01:27:32;;;;;;;8.13;5.07;;;12.50;96.40;;;;;;5074103;28;20196;-58
2022/05/25 01:30:16;;;;;;;6.70;4.50;;;12.50;96.30;;;;;;5074313;28;20188;-56
2022/05/25 01:33:06;;;;;;;6.73;3.80;;;12.40;96.30;;;;;;5074065;28;20193;-57
2022/05/25 01:35:41;;;;;;;5.10;3.40;;;12.40;95.90;;;;;;5073862;28;20189;-57
2022/05/25 01:38:20;;;;;;;4.70;3.30;;;12.40;95.60;;;;;;5073900;28;20189;-57
2022/05/25 01:41:01;;;;;;;6.07;3.00;;;12.50;95.30;;;;;;5073610;28;20189;-57
2022/05/25 01:43:32;;;;;;;4.30;2.90;;;12.50;94.80;;;;;;5073977;28;20192;-57
2022/05/25 01:46:05;;;;;;;4.90;3.30;;;12.60;94.50;;;;;;5073776;28;20189;-57
2022/05/25 01:48:35;;;;;;;3.67;2.90;;;12.70;94.40;;;;;;5073540;28;20193;-57
2022/05/25 01:51:08;;;;;;;4.07;2.90;;;12.70;94.30;;;;;;5073347;28;20570;-58
2022/05/25 01:53:39;;;;;;;8.97;3.57;;;12.70;94.20;;;;;;5073618;28;20215;-58
2022/05/25 01:56:09;;;;;;;4.30;3.27;;;12.80;94.20;;;;;;5073374;28;20189;-58
2022/05/25 01:58:40;;;;;;;4.50;3.30;;;12.80;94.20;;;;;;5073177;28;20255;-57
2022/05/25 02:01:11;;;;;;;5.00;3.00;;;12.90;94.20;;;;;;5073511;28;20193;-58
2022/05/25 02:06:44;;;;;;;8.13;4.00;;;12.90;94.30;;;;;;5072981;28;20299;-57
2022/05/25 02:09:26;;;;;;;5.90;3.77;;;12.90;94.30;;;;;;5070390;28;20277;-58
2022/05/25 02:12:01;;;;;;;6.73;3.83;;;12.90;94.30;;;;;;5073469;28;20658;-57
2022/05/25 02:14:36;;;;;;;7.07;3.60;;;12.90;94.20;;;;;;5073107;28;20216;-56
2022/05/25 02:17:12;;;;;;;5.53;3.17;;;12.90;94.20;;;;;;5072727;28;20196;-57
2022/05/25 02:19:46;;;;;;;7.00;3.03;;;13.00;94.10;;;;;;5073213;28;20291;-58
2022/05/25 02:22:18;;;;;;;4.27;3.00;;;13.00;94.00;;;;;;5072996;28;20494;-58
2022/05/25 02:24:51;;;;;;;3.27;2.73;;;13.00;94.00;;;;;;5073151;28;20539;-58
2022/05/25 02:27:32;;;;;;;6.70;3.20;;;13.10;93.70;;;;;;5072855;28;20193;-58
2022/05/25 02:30:03;;;;;;;8.47;2.93;;;13.20;93.80;;;;;;5072849;28;20546;-57
2022/05/25 02:32:35;;;;;;;6.97;2.80;;;13.20;93.70;;;;;;5072515;28;20209;-57
2022/05/25 02:35:03;;;;;;;5.07;3.30;;;13.30;93.70;;;;;;5072587;28;20220;-56
2022/05/25 02:37:32;;;;;;;6.23;3.20;;;13.40;93.50;;;;;;5072704;28;20545;-58
2022/05/25 02:40:01;;;;;;;6.03;3.00;;;13.50;93.50;;;;;;5072339;28;20208;-57
2022/05/25 02:42:28;;;;;;;5.60;3.23;;;13.60;93.50;;;;;;5072219;28;20220;-57
2022/05/25 02:44:55;;;;;;;5.23;3.13;;;13.60;93.50;;;;;;5072426;28;20208;-58
2022/05/25 02:47:22;;;;;;;4.70;3.00;;;13.70;93.40;;;;;;5072638;28;20205;-60
2022/05/25 02:49:50;;;;;;;7.73;3.30;;;13.70;93.30;;;;;;5072496;28;20211;-57
2022/05/25 02:52:17;;;;;;;5.63;3.40;;;13.70;93.30;;;;;;5072320;28;20207;-58
2022/05/25 02:54:43;;;;;;;5.97;3.60;;;13.70;93.30;;;;;;5072416;28;20231;-58
2022/05/25 02:57:10;;;;;;;6.57;3.30;;;13.80;93.90;;;;;;5071847;28;20241;-58
2022/05/25 02:59:37;;;;;;;5.80;3.10;;;13.80;94.10;;;;;;5072413;28;20208;-59
2022/05/25 03:02:05;;;;;;;7.07;3.40;;;13.80;93.80;;;;;;5071869;28;20212;-57
2022/05/25 03:04:33;;;;;;;4.77;2.93;;;13.90;93.40;;;;;;5071187;28;20262;-57
2022/05/25 03:07:01;;;;;;;7.10;3.00;;;14.00;93.30;;;;;;5072098;28;20567;-58
2022/05/25 03:09:27;;;;;;;5.37;3.10;;;14.00;92.90;;;;;;5072069;28;20219;-58
2022/05/25 03:11:54;;;;;;;7.33;3.23;;;14.10;92.60;;;;;;5071966;28;20215;-57
2022/05/25 03:14:21;;;;;;;7.33;3.30;;;14.10;92.40;;;;;;5071993;28;20229;-58
2022/05/25 03:16:48;;;;;;;9.13;3.20;;;14.10;92.30;;;;;;5071855;28;20224;-59
2022/05/25 03:19:17;;;;;;;3.77;2.63;;;14.20;92.10;;;;;;5071975;28;20208;-57
2022/05/25 03:21:44;;;;;;;6.63;3.00;;;14.30;92.00;;;;;;5071987;28;20735;-57
2022/05/25 03:24:12;;;;;;;3.57;2.67;;;14.30;91.90;;;;;;5071832;28;20562;-57
2022/05/25 03:26:39;;;;;;;5.37;3.17;;;14.40;92.00;;;;;;5071941;28;20205;-58
2022/05/25 03:29:06;;;;;;;6.00;3.10;;;14.40;92.10;;;;;;5071666;28;20211;-58
2022/05/25 03:31:33;;;;;;;5.07;2.80;;;14.50;92.30;;;;;;5071732;28;20204;-57
2022/05/25 03:34:00;;;;;;;4.87;2.73;;;14.50;92.40;;;;;;5071460;28;20584;-57
2022/05/25 03:36:27;;;;;;;18.90;3.20;;;14.50;92.10;;;;;;5071965;28;20205;-58
2022/05/25 03:38:54;;;;;;;3.80;2.77;;;14.60;91.70;;;;;;5071579;28;20227;-57
2022/05/25 03:41:23;;;;;;;4.40;2.87;;;14.60;91.60;;;;;;5071854;28;20552;-57
2022/05/25 03:43:49;;;;;;;4.60;2.50;;;14.70;91.60;;;;;;5071349;28;20228;-57
2022/05/25 03:46:16;;;;;;;3.93;2.93;;;14.80;91.50;;;;;;5071690;28;20307;-57
2022/05/25 03:48:43;;;;;;;4.30;2.63;;;14.90;91.30;;;;;;5071577;28;20216;-57
2022/05/25 03:51:10;;;;;;;3.50;2.63;;;14.90;91.20;;;;;;5071576;28;20205;-58
2022/05/25 03:53:37;;;;;;;3.90;2.60;;;15.00;90.90;;;;;;5071470;28;20705;-59
2022/05/25 03:56:05;;;;;;;4.33;2.70;;;15.10;90.60;;;;;;5071417;28;20314;-58
2022/05/25 03:58:33;;;;;;;3.60;2.57;;;15.20;90.50;;;;;;5071007;28;20244;-59
2022/05/25 04:01:00;;;;;;;4.63;2.60;;;15.20;90.10;;;;;;5071307;28;20212;-58
2022/05/25 04:03:26;;;;;;;4.53;2.80;;;15.30;90.00;;;;;;5071372;28;20208;-58
2022/05/25 04:05:53;;;;;;;5.03;3.00;;;15.40;90.00;;;;;;5071228;28;20224;-56
2022/05/25 04:08:20;;;;;;;5.60;3.03;;;15.40;89.80;;;;;;5071450;28;20210;-58
2022/05/25 04:10:47;;;;;;;7.70;3.43;;;15.50;90.30;;;;;;5071416;28;20201;-58
2022/05/25 04:13:14;;;;;;;6.57;3.50;;;15.50;90.40;;;;;;5071520;28;20207;-57
2022/05/25 04:15:42;;;;;;;9.20;3.80;;;15.50;90.80;;;;;;5074047;28;20242;-58
2022/05/25 04:18:09;;;;;;;8.80;3.43;;;15.60;91.00;;;;;;5075124;28;20210;-58
2022/05/25 04:20:36;;;;;;;6.87;3.70;;;15.60;90.90;;;;;;5075114;28;20212;-58
2022/05/25 04:23:02;;;;;;;13.63;3.77;;;15.70;91.10;;;;;;5075182;28;20239;-58
2022/05/25 04:25:29;;;;;;;7.17;3.40;;;15.70;91.00;;;;;;5075344;28;20558;-57
2022/05/25 04:27:58;;;;;;;4.23;2.40;;;15.80;90.80;;;;;;5075023;28;20204;-58
2022/05/25 04:30:27;;;;;;;6.83;3.27;;;15.80;90.20;;;;;;5075311;28;20299;-57
2022/05/25 04:32:56;;;;;;;4.07;3.00;;;15.90;90.00;;;;;;5075090;28;20240;-60
2022/05/25 04:35:24;;;;;;;5.77;2.63;;;15.80;89.00;;;;;;5074819;28;20235;-58
2022/05/25 04:37:52;;;;;;;4.37;2.80;;;15.90;88.70;;;;;;5074930;28;20219;-59
2022/05/25 04:40:22;;;;;;;6.40;3.40;;;16.00;88.80;;;;;;5074980;28;20254;-58
2022/05/25 04:42:49;;;;;;;3.17;2.53;;;16.00;87.60;;;;;;5074671;28;20611;-60
2022/05/25 04:45:16;;;;;;;6.00;3.10;;;16.10;86.90;;;;;;5074970;28;20671;-58
2022/05/25 04:47:43;;;;;;;9.03;3.13;;;16.10;87.20;;;;;;5074820;28;20211;-58
2022/05/25 04:50:13;;;;;;;5.93;3.07;;;16.10;88.00;;;;;;5074828;28;20465;-57
2022/05/25 04:52:40;;;;;;;4.10;2.70;;;16.20;87.00;;;;;;5074623;28;20640;-57
2022/05/25 04:57:19;;;;;;;4.17;2.87;;;16.20;86.90;;;;;;5074570;28;20248;-57
2022/05/25 04:57:56;;;;;;;6.63;2.63;;;16.30;86.90;;;;;;5074017;28;20247;-57
2022/05/25 05:00:23;;;;;;;3.93;2.63;;;16.30;86.60;;;;;;5074506;28;20200;-57
2022/05/25 05:02:50;;;;;;;6.53;2.80;;;16.30;86.50;;;;;;5074339;28;20204;-58
2022/05/25 05:05:19;;;;;;;5.60;3.00;;;16.40;86.90;;;;;;5074553;28;20583;-58
2022/05/25 05:07:46;;;;;;;3.87;2.50;;;16.50;87.40;;;;;;5074299;28;20791;-58
2022/05/25 05:10:14;;;;;;;4.80;2.70;;;16.60;87.90;;;;;;5074494;28;20201;-57
2022/05/25 05:12:41;;;;;;;4.13;2.77;;;16.70;88.10;;;;;;5074106;28;20212;-58
2022/05/25 05:15:08;;;;;;;8.87;3.00;;;16.70;87.80;;;;;;5074287;28;20225;-58
2022/05/25 05:17:35;;;;;;;4.50;2.80;;;16.80;87.30;;;;;;5074545;28;20697;-56
2022/05/25 05:20:03;;;;;;;4.30;2.90;;;16.90;86.90;;;;;;5074370;28;20202;-57
2022/05/25 05:22:31;;;;;;;4.20;2.97;;;17.00;86.00;;;;;;5073873;28;20205;-57
2022/05/25 05:24:58;;;;;;;4.97;2.80;;;17.10;85.80;;;;;;5073827;28;20200;-58
2022/05/25 05:27:25;;;;;;;5.70;2.83;;;17.10;85.80;;;;;;5073325;28;20645;-57
2022/05/25 05:29:52;;;;;;;6.17;3.00;;;17.20;85.60;;;;;;5073996;28;20671;-59
2022/05/25 05:32:19;;;;;;;3.40;2.67;;;17.30;85.60;;;;;;5073939;28;20650;-58
2022/05/25 05:34:46;;;;;;;4.07;2.93;;;17.40;85.50;;;;;;5073564;28;20226;-57
2022/05/25 05:37:17;;;;;;;7.43;3.17;;;17.50;85.30;;;;;;5073699;28;20201;-60
2022/05/25 05:39:49;;;;;;;6.53;2.97;;;17.60;85.50;;;;;;5073578;28;20194;-57
2022/05/25 05:42:19;;;;;;;5.70;3.00;;;17.60;84.90;;;;;;5073648;28;20233;-59
2022/05/25 05:44:49;;;;;;;5.93;3.17;;;17.70;84.20;;;;;;5074092;28;20553;-58
2022/05/25 05:47:20;;;;;;;5.77;2.73;;;17.70;83.70;;;;;;5073365;28;20194;-59
2022/05/25 05:49:47;;;;;;;5.93;3.00;;;17.80;83.90;;;;;;5073586;28;21148;-57
2022/05/25 05:52:15;;;;;;;5.43;2.70;;;17.80;83.10;;;;;;5073599;28;20246;-58
2022/05/25 05:54:43;;;;;;;6.17;2.80;;;17.90;83.80;;;;;;5073392;28;20243;-59
2022/05/25 05:57:11;;;;;;;5.50;2.97;;;18.00;84.00;;;;;;5073303;28;20734;-58
2022/05/25 05:59:38;;;;;;;4.13;2.77;;;18.00;83.40;;;;;;5073010;28;20199;-59
2022/05/25 06:02:06;;;;;;;6.07;3.07;;;18.10;83.50;;;;;;5073234;28;20692;-57
2022/05/25 06:04:33;;;;;;;5.27;2.63;;;18.20;82.70;;;;;;5073083;28;20225;-58
2022/05/25 06:07:00;;;;;;;11.17;5.20;;;18.30;82.70;;;;;;5072926;28;20241;-57
2022/05/25 06:09:27;;;;;;;5.17;2.73;;;18.30;83.10;;;;;;5072913;28;20207;-58
2022/05/25 06:11:53;;;;;;;4.53;2.90;;;18.40;82.20;;;;;;5073089;28;20200;-57
2022/05/25 06:14:22;;;;;;;4.87;2.80;;;18.50;82.50;;;;;;5073031;28;20236;-59
2022/05/25 06:19:37;;;;;;;11.23;3.00;;;18.60;82.60;;;;;;5072681;28;20563;-58
2022/05/25 06:22:07;;;;;;;5.13;2.90;;;18.70;82.50;;;;;;5072878;28;20208;-58
2022/05/25 06:24:38;;;;;;;4.27;2.90;;;18.80;82.00;;;;;;5072760;28;20629;-59
2022/05/25 06:27:08;;;;;;;7.93;3.27;;;18.90;82.50;;;;;;5072854;28;20235;-59
2022/05/25 06:29:36;;;;;;;5.93;3.10;;;18.90;81.90;;;;;;5072396;28;20213;-59
2022/05/25 06:32:04;;;;;;;4.60;2.70;;;19.00;81.40;;;;;;5073035;28;20201;-57
2022/05/25 06:34:31;;;;;;;7.27;3.27;;;19.10;81.80;;;;;;5072057;28;20312;-58
2022/05/25 06:36:58;;;;;;;4.20;2.40;;;19.10;81.80;;;;;;5072724;28;20212;-58
2022/05/25 06:39:24;;;;;;;4.60;2.67;;;19.20;81.90;;;;;;5071567;28;20201;-59
2022/05/25 06:41:51;;;;;;;5.13;2.63;;;19.30;82.00;;;;;;5072657;28;20220;-58
2022/05/25 06:44:18;;;;;;;4.20;2.47;;;19.40;80.50;;;;;;5072579;28;20208;-60
2022/05/25 06:46:47;;;;;;;5.27;2.53;;;19.50;80.20;;;;;;5072414;28;20313;-57
2022/05/25 06:49:16;;;;;;;7.03;2.80;;;19.50;79.80;;;;;;5072226;28;20205;-57
2022/05/25 06:51:43;;;;;;;7.20;2.90;;;19.60;80.20;;;;;;5072082;28;20262;-58
2022/05/25 06:54:12;;;;;;;5.33;3.27;;;19.70;79.40;;;;;;5072197;28;20201;-59
2022/05/25 06:56:39;;;;;;;5.07;2.93;;;19.80;80.00;;;;;;5072059;28;20214;-57
2022/05/25 06:59:06;;;;;;;3.37;2.60;;;19.90;80.30;;;;;;5072110;28;20207;-58
2022/05/25 07:01:33;;;;;;;3.47;2.43;;;20.00;80.50;;;;;;5072165;28;20290;-57
2022/05/25 07:04:02;;;;;;;5.97;2.97;;;20.10;80.30;;;;;;5072206;28;20212;-59
2022/05/25 07:06:29;;;;;;;6.60;2.70;;;20.30;80.30;;;;;;5072505;28;20557;-58
2022/05/25 07:08:55;;;;;;;4.30;2.67;;;20.40;80.20;;;;;;5072164;28;20200;-57
2022/05/25 07:11:24;;;;;;;4.00;2.00;;;20.50;79.90;;;;;;5071795;28;20205;-60
2022/05/25 07:13:52;;;;;;;5.20;2.00;;;20.60;79.40;;;;;;5071946;28;20218;-58
2022/05/25 07:16:21;;;;;;;3.20;2.40;;;20.70;77.70;;;;;;5071851;28;20222;-60
2022/05/25 07:18:48;;;;;;;3.23;2.13;;;20.80;77.30;;;;;;5072089;28;20209;-60
2022/05/25 07:21:19;;;;;;;5.87;2.20;;;21.00;75.30;;;;;;5071951;28;20266;-59
2022/05/25 07:23:48;;;;;;;11.13;2.83;;;21.00;76.50;;;;;;5072070;28;20189;-60
2022/05/25 07:26:16;;;;;;;3.97;2.10;;;21.10;76.60;;;;;;5071425;28;20233;-59
2022/05/25 07:28:43;;;;;;;3.10;2.00;;;21.10;74.50;;;;;;5071985;28;20207;-62
2022/05/25 07:31:12;;;;;;;3.57;1.90;;;21.10;74.10;;;;;;5071673;28;20563;-59
2022/05/25 07:33:41;;;;;;;12.73;2.00;;;21.20;73.30;;;;;;5071530;28;20205;-59
2022/05/25 07:36:10;;;;;;;2.43;2.00;;;21.30;72.90;;;;;;5071734;28;20238;-58
2022/05/25 07:38:43;;;;;;;3.20;2.13;;;21.40;73.40;;;;;;5071437;28;20212;-59
2022/05/25 07:41:11;;;;;;;4.13;2.30;;;21.50;72.90;;;;;;5071493;28;20280;-59
2022/05/25 07:43:42;;;;;;;2.87;1.77;;;21.60;72.70;;;;;;5071718;28;20658;-58
2022/05/25 07:46:09;;;;;;;1.70;1.60;;;21.70;71.20;;;;;;5071388;28;20185;-59
2022/05/25 07:48:37;;;;;;;2.30;1.97;;;21.70;70.10;;;;;;5071559;28;20209;-58
2022/05/25 07:51:05;;;;;;;2.80;1.80;;;21.80;69.80;;;;;;5071049;28;20212;-58
2022/05/25 07:56:18;;;;;;;1.93;1.70;;;21.80;69.90;;;;;;5071250;28;20238;-58
2022/05/25 07:58:45;;;;;;;2.00;1.80;;;21.90;69.40;;;;;;5071158;28;20304;-60
2022/05/25 08:01:15;;;;;;;3.17;2.20;;;21.90;67.10;;;;;;5070996;28;20207;-59
2022/05/25 08:06:28;;;;;;;2.20;2.00;;;22.00;68.30;;;;;;5071270;28;20207;-58
2022/05/25 08:08:55;;;;;;;4.60;2.10;;;22.00;67.90;;;;;;5071341;28;20296;-59
2022/05/25 08:11:25;;;;;;;2.60;1.97;;;22.00;67.70;;;;;;5071263;28;20709;-58
2022/05/25 08:13:56;;;;;;;2.20;1.70;;;22.00;68.10;;;;;;5071273;28;20621;-58
2022/05/25 08:16:23;;;;;;;3.00;2.00;;;22.10;68.60;;;;;;5071070;28;20209;-59
2022/05/25 08:18:50;;;;;;;3.13;2.03;;;22.20;69.00;;;;;;5071336;28;20689;-57
2022/05/25 08:21:16;;;;;;;3.57;1.77;;;22.20;67.90;;;;;;5070857;28;20212;-60
2022/05/25 08:23:43;;;;;;;2.10;1.70;;;22.30;66.60;;;;;;5071301;28;20205;-58
2022/05/25 08:26:10;;;;;;;2.90;1.67;;;22.30;67.50;;;;;;5071022;28;20200;-58
2022/05/25 08:28:38;;;;;;;4.10;2.00;;;22.40;67.10;;;;;;5071407;28;20315;-60
2022/05/25 08:31:06;;;;;;;2.80;2.10;;;22.30;65.20;;;;;;5070911;28;20215;-60
2022/05/25 08:33:33;;;;;;;3.30;1.83;;;22.30;65.80;;;;;;5071207;28;20208;-58
2022/05/25 08:36:00;;;;;;;6.13;2.47;;;22.30;67.00;;;;;;5071097;28;20220;-58
2022/05/25 08:38:27;;;;;;;5.17;2.10;;;22.40;68.00;;;;;;5070846;28;20247;-60
2022/05/25 08:40:55;;;;;;;3.90;2.00;;;22.50;66.80;;;;;;5071087;28;20241;-58
2022/05/25 08:43:26;;;;;;;2.83;1.87;;;22.50;65.40;;;;;;5071027;28;20626;-59
2022/05/25 08:45:58;;;;;;;3.40;1.90;;;22.50;66.70;;;;;;5071082;28;20281;-59
2022/05/25 08:48:26;;;;;;;2.07;1.70;;;22.70;67.00;;;;;;5070665;28;20186;-60
2022/05/25 08:50:55;;;;;;;2.30;1.70;;;22.70;66.00;;;;;;5070742;28;20215;-58
2022/05/25 08:53:24;;;;;;;10.40;2.43;;;22.80;65.00;;;;;;5070746;28;20201;-58
2022/05/25 08:55:59;;;;;;;2.27;1.80;;;22.70;63.00;;;;;;5070712;28;20232;-59
2022/05/25 08:58:31;;;;;;;2.10;1.90;;;22.60;63.00;;;;;;5070409;28;20268;-58
2022/05/25 09:01:04;;;;;;;2.00;1.70;;;22.60;63.80;;;;;;5071052;28;20205;-58
2022/05/25 09:03:38;;;;;;;2.00;1.80;;;22.70;64.20;;;;;;5075024;28;20193;-59
2022/05/25 09:06:13;;;;;;;3.23;1.90;;;22.80;63.80;;;;;;5074136;28;20213;-58
2022/05/25 09:08:49;;;;;;;1.70;1.60;;;22.80;64.40;;;;;;5074396;28;20195;-59
2022/05/25 09:11:21;;;;;;;3.23;2.07;;;22.80;63.50;;;;;;5074147;28;20193;-60
2022/05/25 09:13:53;;;;;;;3.43;1.70;;;22.80;63.80;;;;;;5074668;28;20599;-62
2022/05/25 09:16:23;;;;;;;3.00;2.00;;;22.90;64.60;;;;;;5074005;28;20501;-58
2022/05/25 09:19:00;;;;;;;5.73;2.20;;;23.00;64.60;;;;;;5074223;28;20202;-59
2022/05/25 09:21:30;;;;;;;2.57;1.77;;;23.20;63.90;;;;;;5074274;28;20196;-60
2022/05/25 09:23:59;;;;;;;5.37;1.80;;;23.10;63.10;;;;;;5074084;28;20205;-57
2022/05/25 09:26:26;;;;;;;1.90;1.70;;;23.10;63.00;;;;;;5074269;28;20679;-58
2022/05/25 09:28:58;;;;;;;2.67;2.10;;;23.10;62.50;;;;;;5074075;28;20213;-57
2022/05/25 09:31:33;;;;;;;3.17;1.87;;;23.20;63.60;;;;;;5074153;28;20215;-59
2022/05/25 09:34:04;;;;;;;3.77;1.90;;;23.20;62.40;;;;;;5074091;28;20574;-60
2022/05/25 09:36:38;;;;;;;5.53;2.10;;;23.30;62.80;;;;;;5073754;28;20213;-58
2022/05/25 09:39:07;;;;;;;2.73;1.97;;;23.40;63.00;;;;;;5073908;28;20236;-58
2022/05/25 09:41:34;;;;;;;2.80;1.77;;;23.50;63.60;;;;;;5074217;28;20653;-60
2022/05/25 09:44:06;;;;;;;3.00;1.80;;;23.70;63.30;;;;;;5073716;28;20209;-59
2022/05/25 09:46:38;;;;;;;3.03;2.00;;;23.80;63.40;;;;;;5073662;28;20213;-60
2022/05/25 09:49:08;;;;;;;2.83;1.93;;;23.80;63.20;;;;;;5073251;28;20209;-58
2022/05/25 09:51:41;;;;;;;3.57;1.83;;;23.90;61.80;;;;;;5073665;28;20207;-58
2022/05/25 09:54:21;;;;;;;4.73;2.07;;;23.90;61.60;;;;;;5073866;28;20200;-58
2022/05/25 09:56:55;;;;;;;4.23;1.70;;;24.00;61.00;;;;;;5073257;28;20213;-58
2022/05/25 09:59:25;;;;;;;2.93;1.60;;;24.00;59.90;;;;;;5073613;28;20200;-59
2022/05/25 10:01:54;;;;;;;9.57;2.00;;;24.00;60.80;;;;;;5073684;28;20564;-59
2022/05/25 10:04:36;;;;;;;2.30;1.77;;;24.00;61.80;;;;;;5073390;28;20288;-60
2022/05/25 10:07:18;;;;;;;2.67;1.77;;;24.10;61.30;;;;;;5073379;28;20195;-62
2022/05/25 10:09:48;;;;;;;3.07;1.83;;;24.20;61.50;;;;;;5073484;28;20654;-58
2022/05/25 10:12:26;;;;;;;1.70;1.60;;;24.30;62.70;;;;;;5072933;28;20208;-60
2022/05/25 10:14:59;;;;;;;3.60;1.93;;;24.30;61.40;;;;;;5073152;28;20630;-59
2022/05/25 10:17:37;;;;;;;2.30;1.83;;;24.40;60.50;;;;;;5072732;28;20227;-59
2022/05/25 10:20:19;;;;;;;4.30;1.80;;;24.30;59.40;;;;;;5072879;28;20540;-59
2022/05/25 10:22:47;;;;;;;3.83;2.17;;;24.30;60.00;;;;;;5073023;28;20598;-60
2022/05/25 10:25:28;;;;;;;3.60;1.93;;;24.20;59.20;;;;;;5072969;28;20562;-60
2022/05/25 10:27:55;;;;;;;3.83;1.73;;;24.20;59.00;;;;;;5072710;28;20192;-60
2022/05/25 10:38:51;;;;;;;3.10;1.90;;;24.10;59.90;;;;;;5072237;28;20654;-57
2022/05/25 10:41:41;;;;;;;3.23;2.00;;;24.00;59.70;;;;;;5072308;28;20209;-58
2022/05/25 10:44:15;;;;;;;3.00;1.90;;;24.00;59.00;;;;;;5072162;28;20194;-59
2022/05/25 10:46:52;;;;;;;3.33;2.17;;;23.90;58.70;;;;;;5072119;28;20190;-59
2022/05/25 10:49:27;;;;;;;3.07;1.73;;;23.90;59.90;;;;;;5072443;28;20194;-58
2022/05/25 10:51:59;;;;;;;2.33;1.77;;;23.90;58.30;;;;;;5071896;28;20557;-59
2022/05/25 10:54:47;;;;;;;4.13;1.70;;;23.90;58.70;;;;;;5072017;28;20187;-59
2022/05/25 10:57:41;;;;;;;3.70;1.93;;;24.00;59.40;;;;;;5071884;28;20725;-58
2022/05/25 11:00:12;;;;;;;1.70;1.50;;;24.10;59.50;;;;;;5072064;28;20297;-58
2022/05/25 11:02:59;;;;;;;3.93;1.70;;;24.20;59.30;;;;;;5072395;28;20558;-60
2022/05/25 11:05:38;;;;;;;4.50;1.77;;;24.30;58.10;;;;;;5061475;28;20612;-59
2022/05/25 11:08:14;;;;;;;3.57;1.70;;;24.30;57.70;;;;;;5071843;28;20197;-59
2022/05/25 11:10:48;;;;;;;3.07;1.87;;;24.30;57.00;;;;;;5072237;28;20199;-58
2022/05/25 11:13:44;;;;;;;2.57;1.80;;;24.30;57.60;;;;;;5071690;28;20193;-59
2022/05/25 11:16:27;;;;;;;2.50;1.90;;;24.30;57.10;;;;;;5071766;28;20218;-59
2022/05/25 11:19:13;;;;;;;2.20;2.00;;;24.30;56.90;;;;;;5071623;28;20285;-59
2022/05/25 11:21:48;;;;;;;3.67;2.00;;;24.40;57.50;;;;;;5071926;28;20200;-58
2022/05/25 11:24:37;;;;;;;3.33;1.73;;;24.50;57.80;;;;;;5071414;28;20663;-58
2022/05/25 11:27:18;;;;;;;1.93;1.60;;;24.60;57.70;;;;;;5071385;28;20195;-58
2022/05/25 11:30:09;;;;;;;3.27;1.97;;;24.70;57.60;;;;;;5071441;28;20198;-58
2022/05/25 11:32:52;;;;;;;3.23;1.80;;;24.80;57.90;;;;;;5068377;28;20209;-59
2022/05/25 11:35:42;;;;;;;2.33;1.93;;;24.90;58.70;;;;;;5071719;28;20204;-60
2022/05/25 11:38:24;;;;;;;2.47;1.77;;;25.10;58.50;;;;;;5071768;28;20691;-61
2022/05/25 11:41:06;;;;;;;4.50;2.13;;;25.20;58.40;;;;;;5071548;28;20196;-60
2022/05/25 11:43:58;;;;;;;2.73;1.83;;;25.20;57.80;;;;;;5071290;28;20191;-60
2022/05/25 11:46:36;;;;;;;3.70;2.00;;;25.30;58.70;;;;;;5071530;28;20567;-58
2022/05/25 11:49:35;;;;;;;6.43;1.80;;;25.40;58.20;;;;;;5071254;28;20202;-59
2022/05/25 11:52:23;;;;;;;3.70;2.00;;;25.40;57.70;;;;;;5071238;28;20275;-58
2022/05/25 11:55:03;;;;;;;4.87;2.03;;;25.50;55.70;;;;;;5071206;28;20215;-59
2022/05/25 11:57:38;;;;;;;3.77;2.00;;;25.50;55.60;;;;;;5071362;28;20251;-61
2022/05/25 12:00:27;;;;;;;2.40;1.90;;;25.30;53.80;;;;;;5072103;28;20519;-58
2022/05/25 12:03:17;;;;;;;2.87;1.90;;;25.00;54.60;;;;;;5070827;28;20191;-59
2022/05/25 12:05:58;;;;;;;3.30;2.00;;;25.00;56.40;;;;;;5070850;28;20198;-59
2022/05/25 12:08:52;;;;;;;2.83;1.97;;;25.10;55.70;;;;;;5071476;28;20190;-59
2022/05/25 12:11:30;;;;;;;2.57;1.93;;;25.20;56.00;;;;;;5071349;28;20196;-58
2022/05/25 12:14:06;;;;;;;8.13;4.90;;;25.30;56.00;;;;;;5070937;28;20238;-58
2022/05/25 12:16:39;;;;;;;2.63;2.20;;;25.40;56.00;;;;;;5071244;28;20241;-59
2022/05/25 12:19:11;;;;;;;3.50;2.20;;;25.50;56.10;;;;;;5071082;28;20193;-60
2022/05/25 12:21:40;;;;;;;4.00;1.83;;;25.50;56.20;;;;;;5071135;28;20215;-60
2022/05/25 12:24:12;;;;;;;3.40;1.90;;;25.50;56.60;;;;;;5071459;28;20611;-61
2022/05/25 12:26:40;;;;;;;3.43;2.03;;;25.50;56.90;;;;;;5071112;28;20283;-58
2022/05/25 12:29:24;;;;;;;5.20;3.00;;;25.50;56.90;;;;;;5071345;28;20560;-58
2022/05/25 12:31:55;;;;;;;2.83;2.27;;;25.40;56.70;;;;;;5071307;28;20196;-60
2022/05/25 12:34:28;;;;;;;5.13;3.00;;;25.30;56.10;;;;;;5071396;28;20201;-60
2022/05/25 12:36:55;;;;;;;2.80;2.00;;;25.30;56.00;;;;;;5072378;28;20211;-58
2022/05/25 12:39:56;;;;;;;2.50;1.70;;;25.30;56.80;;;;;;5075129;28;20543;-58
2022/05/25 12:42:42;;;;;;;2.90;1.90;;;25.30;56.00;;;;;;5074667;28;20283;-57
2022/05/25 12:50:57;;;;;;;3.67;1.80;;;25.20;55.90;;;;;;5074742;28;20312;-58
2022/05/25 12:53:32;;;;;;;2.67;1.77;;;25.20;56.20;;;;;;5075278;28;20214;-59
2022/05/25 12:56:00;;;;;;;3.90;2.20;;;25.20;56.50;;;;;;5074305;28;20198;-58
2022/05/25 12:58:53;;;;;;;4.10;2.50;;;25.30;56.40;;;;;;5074369;28;20235;-57
2022/05/25 13:01:33;;;;;;;3.70;2.10;;;25.30;56.30;;;;;;5074472;28;20192;-58
2022/05/25 13:04:20;;;;;;;3.57;2.10;;;25.20;56.20;;;;;;5074707;28;20703;-59
2022/05/25 13:07:23;;;;;;;6.03;2.30;;;25.10;55.50;;;;;;5073605;28;20610;-58
2022/05/25 13:09:51;;;;;;;5.13;2.10;;;25.00;56.10;;;;;;5074530;28;20552;-59
2022/05/25 13:12:46;;;;;;;6.93;2.37;;;25.00;55.70;;;;;;5074316;28;20699;-60
2022/05/25 13:15:44;;;;;;;5.50;1.90;;;25.10;55.90;;;;;;5074185;28;20246;-59
2022/05/25 13:18:48;;;;;;;3.00;1.90;;;25.10;55.20;;;;;;5074210;28;20733;-58
2022/05/25 13:21:39;;;;;;;3.10;2.00;;;25.20;55.90;;;;;;5074178;28;20210;-60
2022/05/25 13:24:37;;;;;;;3.03;2.20;;;25.20;55.00;;;;;;5073996;28;20233;-58
2022/05/25 13:27:33;;;;;;;3.60;2.00;;;25.10;55.40;;;;;;5074159;28;20194;-58
2022/05/25 13:30:08;;;;;;;2.93;1.97;;;25.10;55.70;;;;;;5074257;28;20228;-58
2022/05/25 13:32:40;;;;;;;3.30;2.20;;;25.10;55.30;;;;;;5073902;28;20193;-59
2022/05/25 13:35:29;;;;;;;2.43;2.10;;;25.20;55.60;;;;;;5073958;28;20193;-59
2022/05/25 13:38:01;;;;;;;3.90;2.30;;;25.20;55.70;;;;;;5073944;28;20242;-60